sensor_id;sensor_type;location;lat;lon;timestamp;P1;durP1;ratioP1;P2;durP2;ratioP2
40058;SDS011;25763;49.972;8.568;2022-07-06T00:01:33;11.25;;;10.55;;
40058;SDS011;25763;49.972;8.568;2022-07-06T00:04:00;12.60;;;11.90;;
40058;SDS011;25763;49.972;8.568;2022-07-06T00:06:26;11.85;;;11.15;;
40058;SDS011;25763;49.972;8.568;2022-07-06T00:08:51;12.90;;;12.15;;
40058;SDS011;25763;49.972;8.568;2022-07-06T00:11:17;11.45;;;10.75;;
40058;SDS011;25763;49.972;8.568;2022-07-06T00:13:42;12.15;;;11.40;;
40058;SDS011;25763;49.972;8.568;2022-07-06T00:16:07;12.13;;;11.40;;
40058;SDS011;25763;49.972;8.568;2022-07-06T00:18:33;13.90;;;13.00;;
40058;SDS011;25763;49.972;8.568;2022-07-06T00:20:59;13.38;;;12.57;;
40058;SDS011;25763;49.972;8.568;2022-07-06T00:23:24;11.68;;;10.98;;
40058;SDS011;25763;49.972;8.568;2022-07-06T00:25:49;13.18;;;12.38;;
40058;SDS011;25763;49.972;8.568;2022-07-06T00:28:15;14.00;;;13.20;;
40058;SDS011;25763;49.972;8.568;2022-07-06T00:30:40;12.60;;;11.85;;
40058;SDS011;25763;49.972;8.568;2022-07-06T00:33:06;11.93;;;11.23;;
40058;SDS011;25763;49.972;8.568;2022-07-06T00:35:32;11.23;;;10.52;;
40058;SDS011;25763;49.972;8.568;2022-07-06T00:37:57;11.43;;;10.73;;
40058;SDS011;25763;49.972;8.568;2022-07-06T00:40:23;10.85;;;10.15;;
40058;SDS011;25763;49.972;8.568;2022-07-06T00:42:48;11.35;;;10.65;;
40058;SDS011;25763;49.972;8.568;2022-07-06T00:45:15;11.30;;;10.60;;
40058;SDS011;25763;49.972;8.568;2022-07-06T00:47:41;11.32;;;10.63;;
40058;SDS011;25763;49.972;8.568;2022-07-06T00:50:08;11.73;;;11.02;;
40058;SDS011;25763;49.972;8.568;2022-07-06T00:52:48;10.80;;;10.10;;
40058;SDS011;25763;49.972;8.568;2022-07-06T00:55:16;10.75;;;10.07;;
40058;SDS011;25763;49.972;8.568;2022-07-06T00:57:46;11.32;;;10.63;;
40058;SDS011;25763;49.972;8.568;2022-07-06T01:00:12;10.77;;;10.10;;
40058;SDS011;25763;49.972;8.568;2022-07-06T01:02:40;12.18;;;11.27;;
40058;SDS011;25763;49.972;8.568;2022-07-06T01:05:06;10.02;;;9.43;;
40058;SDS011;25763;49.972;8.568;2022-07-06T01:07:33;10.38;;;9.75;;
40058;SDS011;25763;49.972;8.568;2022-07-06T01:09:59;10.15;;;9.48;;
40058;SDS011;25763;49.972;8.568;2022-07-06T01:12:24;10.32;;;9.73;;
40058;SDS011;25763;49.972;8.568;2022-07-06T01:14:50;10.38;;;9.73;;
40058;SDS011;25763;49.972;8.568;2022-07-06T01:17:16;11.32;;;10.63;;
40058;SDS011;25763;49.972;8.568;2022-07-06T01:19:42;13.30;;;12.50;;
40058;SDS011;25763;49.972;8.568;2022-07-06T01:22:08;10.57;;;9.88;;
40058;SDS011;25763;49.972;8.568;2022-07-06T01:24:36;10.90;;;10.25;;
40058;SDS011;25763;49.972;8.568;2022-07-06T01:27:05;14.32;;;13.50;;
40058;SDS011;25763;49.972;8.568;2022-07-06T01:29:31;11.73;;;11.02;;
40058;SDS011;25763;49.972;8.568;2022-07-06T01:31:57;11.02;;;10.32;;
40058;SDS011;25763;49.972;8.568;2022-07-06T01:34:23;12.68;;;11.93;;
40058;SDS011;25763;49.972;8.568;2022-07-06T01:36:48;10.82;;;10.13;;
40058;SDS011;25763;49.972;8.568;2022-07-06T01:39:14;11.38;;;10.68;;
40058;SDS011;25763;49.972;8.568;2022-07-06T01:41:39;10.70;;;10.00;;
40058;SDS011;25763;49.972;8.568;2022-07-06T01:44:05;11.32;;;10.63;;
40058;SDS011;25763;49.972;8.568;2022-07-06T01:46:30;11.00;;;10.30;;
40058;SDS011;25763;49.972;8.568;2022-07-06T01:48:56;10.30;;;9.70;;
40058;SDS011;25763;49.972;8.568;2022-07-06T01:51:22;10.50;;;9.82;;
40058;SDS011;25763;49.972;8.568;2022-07-06T01:53:48;11.38;;;10.68;;
40058;SDS011;25763;49.972;8.568;2022-07-06T01:56:14;9.52;;;8.93;;
40058;SDS011;25763;49.972;8.568;2022-07-06T01:58:40;10.32;;;9.73;;
40058;SDS011;25763;49.972;8.568;2022-07-06T02:03:34;9.88;;;9.27;;
40058;SDS011;25763;49.972;8.568;2022-07-06T02:06:00;8.95;;;8.35;;
40058;SDS011;25763;49.972;8.568;2022-07-06T02:08:25;8.23;;;7.72;;
40058;SDS011;25763;49.972;8.568;2022-07-06T02:10:51;9.70;;;9.10;;
40058;SDS011;25763;49.972;8.568;2022-07-06T02:13:16;8.18;;;7.68;;
40058;SDS011;25763;49.972;8.568;2022-07-06T02:15:41;8.10;;;7.60;;
40058;SDS011;25763;49.972;8.568;2022-07-06T02:18:07;8.13;;;7.63;;
40058;SDS011;25763;49.972;8.568;2022-07-06T02:20:32;7.82;;;7.32;;
40058;SDS011;25763;49.972;8.568;2022-07-06T02:22:57;7.20;;;6.70;;
40058;SDS011;25763;49.972;8.568;2022-07-06T02:25:23;7.45;;;6.95;;
40058;SDS011;25763;49.972;8.568;2022-07-06T02:27:48;7.45;;;6.95;;
40058;SDS011;25763;49.972;8.568;2022-07-06T02:30:13;6.55;;;6.15;;
40058;SDS011;25763;49.972;8.568;2022-07-06T02:32:39;6.70;;;6.22;;
40058;SDS011;25763;49.972;8.568;2022-07-06T02:35:04;7.30;;;6.80;;
40058;SDS011;25763;49.972;8.568;2022-07-06T02:37:30;7.30;;;6.80;;
40058;SDS011;25763;49.972;8.568;2022-07-06T02:39:55;7.85;;;7.35;;
40058;SDS011;25763;49.972;8.568;2022-07-06T02:42:20;6.82;;;6.20;;
40058;SDS011;25763;49.972;8.568;2022-07-06T02:44:46;7.25;;;6.75;;
40058;SDS011;25763;49.972;8.568;2022-07-06T02:47:11;6.97;;;6.47;;
40058;SDS011;25763;49.972;8.568;2022-07-06T02:49:36;7.07;;;6.57;;
40058;SDS011;25763;49.972;8.568;2022-07-06T02:52:02;8.05;;;7.55;;
40058;SDS011;25763;49.972;8.568;2022-07-06T02:54:27;7.75;;;7.25;;
40058;SDS011;25763;49.972;8.568;2022-07-06T02:56:53;6.80;;;6.30;;
40058;SDS011;25763;49.972;8.568;2022-07-06T02:59:19;7.18;;;6.68;;
40058;SDS011;25763;49.972;8.568;2022-07-06T03:01:45;6.50;;;6.07;;
40058;SDS011;25763;49.972;8.568;2022-07-06T03:04:10;6.55;;;6.10;;
40058;SDS011;25763;49.972;8.568;2022-07-06T03:06:35;6.90;;;6.40;;
40058;SDS011;25763;49.972;8.568;2022-07-06T03:09:01;6.40;;;6.00;;
40058;SDS011;25763;49.972;8.568;2022-07-06T03:11:26;7.13;;;6.63;;
40058;SDS011;25763;49.972;8.568;2022-07-06T03:13:52;6.53;;;6.05;;
40058;SDS011;25763;49.972;8.568;2022-07-06T03:16:17;7.15;;;6.65;;
40058;SDS011;25763;49.972;8.568;2022-07-06T03:18:43;7.43;;;6.93;;
40058;SDS011;25763;49.972;8.568;2022-07-06T03:21:08;7.32;;;6.82;;
40058;SDS011;25763;49.972;8.568;2022-07-06T03:23:33;7.15;;;6.68;;
40058;SDS011;25763;49.972;8.568;2022-07-06T03:25:59;7.25;;;6.75;;
40058;SDS011;25763;49.972;8.568;2022-07-06T03:28:24;7.40;;;6.90;;
40058;SDS011;25763;49.972;8.568;2022-07-06T03:30:50;7.65;;;7.15;;
40058;SDS011;25763;49.972;8.568;2022-07-06T03:33:15;7.95;;;7.40;;
40058;SDS011;25763;49.972;8.568;2022-07-06T03:35:40;8.52;;;8.02;;
40058;SDS011;25763;49.972;8.568;2022-07-06T03:38:06;7.93;;;7.43;;
40058;SDS011;25763;49.972;8.568;2022-07-06T03:40:31;7.50;;;7.00;;
40058;SDS011;25763;49.972;8.568;2022-07-06T03:42:56;8.02;;;7.32;;
40058;SDS011;25763;49.972;8.568;2022-07-06T03:45:22;6.88;;;6.38;;
40058;SDS011;25763;49.972;8.568;2022-07-06T03:47:47;6.97;;;6.47;;
40058;SDS011;25763;49.972;8.568;2022-07-06T03:50:13;6.95;;;6.45;;
40058;SDS011;25763;49.972;8.568;2022-07-06T03:52:38;7.40;;;6.90;;
40058;SDS011;25763;49.972;8.568;2022-07-06T03:55:07;7.25;;;6.75;;
40058;SDS011;25763;49.972;8.568;2022-07-06T03:57:34;7.15;;;6.60;;
40058;SDS011;25763;49.972;8.568;2022-07-06T03:59:59;7.22;;;6.72;;
40058;SDS011;25763;49.972;8.568;2022-07-06T04:02:24;7.18;;;6.68;;
40058;SDS011;25763;49.972;8.568;2022-07-06T04:04:50;7.65;;;7.15;;
40058;SDS011;25763;49.972;8.568;2022-07-06T04:07:15;7.00;;;6.50;;
40058;SDS011;25763;49.972;8.568;2022-07-06T04:09:40;6.85;;;6.35;;
40058;SDS011;25763;49.972;8.568;2022-07-06T04:12:06;7.35;;;6.85;;
40058;SDS011;25763;49.972;8.568;2022-07-06T04:14:32;6.75;;;6.30;;
40058;SDS011;25763;49.972;8.568;2022-07-06T04:16:57;7.57;;;7.07;;
40058;SDS011;25763;49.972;8.568;2022-07-06T04:19:22;7.30;;;6.72;;
40058;SDS011;25763;49.972;8.568;2022-07-06T04:21:48;6.75;;;6.25;;
40058;SDS011;25763;49.972;8.568;2022-07-06T04:24:13;7.20;;;6.70;;
40058;SDS011;25763;49.972;8.568;2022-07-06T04:26:38;7.35;;;6.85;;
40058;SDS011;25763;49.972;8.568;2022-07-06T04:29:03;6.45;;;5.95;;
40058;SDS011;25763;49.972;8.568;2022-07-06T04:31:29;6.82;;;6.32;;
40058;SDS011;25763;49.972;8.568;2022-07-06T04:33:54;6.57;;;6.07;;
40058;SDS011;25763;49.972;8.568;2022-07-06T04:36:19;6.60;;;6.10;;
40058;SDS011;25763;49.972;8.568;2022-07-06T04:38:45;6.25;;;5.85;;
40058;SDS011;25763;49.972;8.568;2022-07-06T04:41:12;6.07;;;5.68;;
40058;SDS011;25763;49.972;8.568;2022-07-06T04:43:38;5.90;;;5.50;;
40058;SDS011;25763;49.972;8.568;2022-07-06T04:46:03;6.53;;;6.03;;
40058;SDS011;25763;49.972;8.568;2022-07-06T04:48:30;6.30;;;5.90;;
40058;SDS011;25763;49.972;8.568;2022-07-06T04:50:57;6.35;;;5.93;;
40058;SDS011;25763;49.972;8.568;2022-07-06T04:53:23;6.40;;;5.90;;
40058;SDS011;25763;49.972;8.568;2022-07-06T04:55:48;6.70;;;6.20;;
40058;SDS011;25763;49.972;8.568;2022-07-06T04:58:14;6.82;;;6.35;;
40058;SDS011;25763;49.972;8.568;2022-07-06T05:00:39;6.88;;;6.38;;
40058;SDS011;25763;49.972;8.568;2022-07-06T05:03:04;6.57;;;6.10;;
40058;SDS011;25763;49.972;8.568;2022-07-06T05:05:30;6.10;;;5.70;;
40058;SDS011;25763;49.972;8.568;2022-07-06T05:07:55;6.53;;;6.03;;
40058;SDS011;25763;49.972;8.568;2022-07-06T05:10:20;8.38;;;7.78;;
40058;SDS011;25763;49.972;8.568;2022-07-06T05:12:46;8.65;;;6.97;;
40058;SDS011;25763;49.972;8.568;2022-07-06T05:15:11;6.88;;;6.38;;
40058;SDS011;25763;49.972;8.568;2022-07-06T05:17:37;7.53;;;7.03;;
40058;SDS011;25763;49.972;8.568;2022-07-06T05:20:03;7.63;;;7.13;;
40058;SDS011;25763;49.972;8.568;2022-07-06T05:22:29;6.40;;;6.00;;
40058;SDS011;25763;49.972;8.568;2022-07-06T05:24:54;6.57;;;6.15;;
40058;SDS011;25763;49.972;8.568;2022-07-06T05:27:19;6.93;;;6.43;;
40058;SDS011;25763;49.972;8.568;2022-07-06T05:29:45;6.75;;;6.25;;
40058;SDS011;25763;49.972;8.568;2022-07-06T05:32:10;6.70;;;6.20;;
40058;SDS011;25763;49.972;8.568;2022-07-06T05:34:35;7.50;;;6.95;;
40058;SDS011;25763;49.972;8.568;2022-07-06T05:37:03;7.18;;;6.68;;
40058;SDS011;25763;49.972;8.568;2022-07-06T05:39:28;7.35;;;6.85;;
40058;SDS011;25763;49.972;8.568;2022-07-06T05:41:53;7.57;;;7.07;;
40058;SDS011;25763;49.972;8.568;2022-07-06T05:44:19;7.30;;;6.80;;
40058;SDS011;25763;49.972;8.568;2022-07-06T05:46:44;7.95;;;7.45;;
40058;SDS011;25763;49.972;8.568;2022-07-06T05:49:10;7.70;;;7.20;;
40058;SDS011;25763;49.972;8.568;2022-07-06T05:51:53;7.00;;;6.53;;
40058;SDS011;25763;49.972;8.568;2022-07-06T05:54:19;7.20;;;6.70;;
40058;SDS011;25763;49.972;8.568;2022-07-06T05:56:44;7.65;;;7.15;;
40058;SDS011;25763;49.972;8.568;2022-07-06T05:59:09;7.90;;;7.40;;
40058;SDS011;25763;49.972;8.568;2022-07-06T06:01:35;7.80;;;7.30;;
40058;SDS011;25763;49.972;8.568;2022-07-06T06:04:00;7.82;;;7.32;;
40058;SDS011;25763;49.972;8.568;2022-07-06T06:06:26;7.88;;;7.38;;
40058;SDS011;25763;49.972;8.568;2022-07-06T06:08:51;7.05;;;6.55;;
40058;SDS011;25763;49.972;8.568;2022-07-06T06:11:17;7.60;;;7.10;;
40058;SDS011;25763;49.972;8.568;2022-07-06T06:13:42;7.40;;;6.90;;
40058;SDS011;25763;49.972;8.568;2022-07-06T06:16:08;7.85;;;7.32;;
40058;SDS011;25763;49.972;8.568;2022-07-06T06:18:33;7.88;;;7.38;;
40058;SDS011;25763;49.972;8.568;2022-07-06T06:20:59;7.43;;;6.93;;
40058;SDS011;25763;49.972;8.568;2022-07-06T06:23:24;7.88;;;7.38;;
40058;SDS011;25763;49.972;8.568;2022-07-06T06:25:49;8.00;;;7.40;;
40058;SDS011;25763;49.972;8.568;2022-07-06T06:28:15;7.85;;;7.13;;
40058;SDS011;25763;49.972;8.568;2022-07-06T06:30:40;7.70;;;7.20;;
40058;SDS011;25763;49.972;8.568;2022-07-06T06:33:13;8.25;;;7.75;;
40058;SDS011;25763;49.972;8.568;2022-07-06T06:35:43;8.20;;;7.70;;
40058;SDS011;25763;49.972;8.568;2022-07-06T06:38:10;7.88;;;7.22;;
40058;SDS011;25763;49.972;8.568;2022-07-06T06:40:35;7.95;;;7.45;;
40058;SDS011;25763;49.972;8.568;2022-07-06T06:43:01;8.52;;;7.93;;
40058;SDS011;25763;49.972;8.568;2022-07-06T06:45:26;8.77;;;8.18;;
40058;SDS011;25763;49.972;8.568;2022-07-06T06:47:52;8.80;;;8.20;;
40058;SDS011;25763;49.972;8.568;2022-07-06T06:50:18;8.25;;;7.75;;
40058;SDS011;25763;49.972;8.568;2022-07-06T06:52:43;9.23;;;8.63;;
40058;SDS011;25763;49.972;8.568;2022-07-06T06:55:09;8.93;;;8.32;;
40058;SDS011;25763;49.972;8.568;2022-07-06T06:57:34;9.45;;;8.85;;
40058;SDS011;25763;49.972;8.568;2022-07-06T07:00:00;8.98;;;8.38;;
40058;SDS011;25763;49.972;8.568;2022-07-06T07:02:25;9.90;;;9.20;;
40058;SDS011;25763;49.972;8.568;2022-07-06T07:04:50;9.27;;;8.65;;
40058;SDS011;25763;49.972;8.568;2022-07-06T07:07:16;9.60;;;9.00;;
40058;SDS011;25763;49.972;8.568;2022-07-06T07:09:41;9.07;;;8.45;;
40058;SDS011;25763;49.972;8.568;2022-07-06T07:12:07;10.73;;;10.00;;
40058;SDS011;25763;49.972;8.568;2022-07-06T07:14:32;9.73;;;9.13;;
40058;SDS011;25763;49.972;8.568;2022-07-06T07:16:58;9.40;;;8.80;;
40058;SDS011;25763;49.972;8.568;2022-07-06T07:19:23;9.77;;;9.18;;
40058;SDS011;25763;49.972;8.568;2022-07-06T07:21:48;10.75;;;10.05;;
40058;SDS011;25763;49.972;8.568;2022-07-06T07:24:14;10.43;;;9.77;;
40058;SDS011;25763;49.972;8.568;2022-07-06T07:26:39;10.43;;;9.80;;
40058;SDS011;25763;49.972;8.568;2022-07-06T07:29:05;9.63;;;9.02;;
40058;SDS011;25763;49.972;8.568;2022-07-06T07:31:30;11.60;;;10.80;;
40058;SDS011;25763;49.972;8.568;2022-07-06T07:33:55;10.63;;;9.95;;
40058;SDS011;25763;49.972;8.568;2022-07-06T07:36:22;11.45;;;10.75;;
40058;SDS011;25763;49.972;8.568;2022-07-06T07:38:49;11.30;;;10.60;;
40058;SDS011;25763;49.972;8.568;2022-07-06T07:41:14;12.73;;;11.93;;
40058;SDS011;25763;49.972;8.568;2022-07-06T07:43:41;12.60;;;11.82;;
40058;SDS011;25763;49.972;8.568;2022-07-06T07:46:07;12.48;;;11.77;;
40058;SDS011;25763;49.972;8.568;2022-07-06T07:48:32;11.95;;;11.25;;
40058;SDS011;25763;49.972;8.568;2022-07-06T07:50:58;12.77;;;12.00;;
40058;SDS011;25763;49.972;8.568;2022-07-06T07:53:23;13.13;;;12.32;;
40058;SDS011;25763;49.972;8.568;2022-07-06T07:55:48;13.20;;;12.40;;
40058;SDS011;25763;49.972;8.568;2022-07-06T07:58:14;13.82;;;13.02;;
40058;SDS011;25763;49.972;8.568;2022-07-06T08:00:39;12.55;;;11.82;;
40058;SDS011;25763;49.972;8.568;2022-07-06T08:03:04;14.80;;;13.90;;
40058;SDS011;25763;49.972;8.568;2022-07-06T08:05:30;13.43;;;12.65;;
40058;SDS011;25763;49.972;8.568;2022-07-06T08:07:56;13.93;;;13.13;;
40058;SDS011;25763;49.972;8.568;2022-07-06T08:10:21;16.15;;;15.25;;
40058;SDS011;25763;49.972;8.568;2022-07-06T08:12:47;18.75;;;17.75;;
40058;SDS011;25763;49.972;8.568;2022-07-06T08:15:12;15.80;;;14.90;;
40058;SDS011;25763;49.972;8.568;2022-07-06T08:17:38;17.95;;;16.83;;
40058;SDS011;25763;49.972;8.568;2022-07-06T08:20:05;19.08;;;17.98;;
40058;SDS011;25763;49.972;8.568;2022-07-06T08:22:31;19.65;;;18.58;;
40058;SDS011;25763;49.972;8.568;2022-07-06T08:24:56;21.88;;;20.55;;
40058;SDS011;25763;49.972;8.568;2022-07-06T08:27:23;21.38;;;19.98;;
40058;SDS011;25763;49.972;8.568;2022-07-06T08:29:48;22.75;;;21.55;;
40058;SDS011;25763;49.972;8.568;2022-07-06T08:32:14;21.23;;;20.10;;
40058;SDS011;25763;49.972;8.568;2022-07-06T08:34:39;23.38;;;22.13;;
40058;SDS011;25763;49.972;8.568;2022-07-06T08:37:05;23.88;;;22.58;;
40058;SDS011;25763;49.972;8.568;2022-07-06T08:39:30;21.13;;;19.95;;
40058;SDS011;25763;49.972;8.568;2022-07-06T08:41:56;21.08;;;19.92;;
40058;SDS011;25763;49.972;8.568;2022-07-06T08:44:23;22.20;;;21.00;;
40058;SDS011;25763;49.972;8.568;2022-07-06T08:46:50;19.88;;;18.77;;
40058;SDS011;25763;49.972;8.568;2022-07-06T08:49:19;21.13;;;19.98;;
40058;SDS011;25763;49.972;8.568;2022-07-06T08:51:45;21.02;;;19.83;;
40058;SDS011;25763;49.972;8.568;2022-07-06T08:54:11;22.05;;;20.85;;
40058;SDS011;25763;49.972;8.568;2022-07-06T08:56:36;22.45;;;21.25;;
40058;SDS011;25763;49.972;8.568;2022-07-06T08:59:02;21.00;;;19.90;;
40058;SDS011;25763;49.972;8.568;2022-07-06T09:01:28;19.20;;;18.10;;
40058;SDS011;25763;49.972;8.568;2022-07-06T09:03:54;20.50;;;19.38;;
40058;SDS011;25763;49.972;8.568;2022-07-06T09:06:24;20.73;;;19.52;;
40058;SDS011;25763;49.972;8.568;2022-07-06T09:08:52;22.77;;;21.57;;
40058;SDS011;25763;49.972;8.568;2022-07-06T09:11:22;22.83;;;21.58;;
40058;SDS011;25763;49.972;8.568;2022-07-06T09:13:52;24.05;;;22.75;;
40058;SDS011;25763;49.972;8.568;2022-07-06T09:16:24;23.77;;;22.50;;
40058;SDS011;25763;49.972;8.568;2022-07-06T09:18:51;24.45;;;23.15;;
40058;SDS011;25763;49.972;8.568;2022-07-06T09:21:23;24.55;;;23.25;;
40058;SDS011;25763;49.972;8.568;2022-07-06T09:23:53;21.25;;;20.13;;
40058;SDS011;25763;49.972;8.568;2022-07-06T09:26:20;24.58;;;23.15;;
40058;SDS011;25763;49.972;8.568;2022-07-06T09:28:45;27.52;;;26.10;;
40058;SDS011;25763;49.972;8.568;2022-07-06T09:31:11;27.25;;;25.83;;
40058;SDS011;25763;49.972;8.568;2022-07-06T09:33:36;30.60;;;29.00;;
40058;SDS011;25763;49.972;8.568;2022-07-06T09:36:03;26.98;;;25.48;;
40058;SDS011;25763;49.972;8.568;2022-07-06T09:38:30;38.00;;;36.05;;
40058;SDS011;25763;49.972;8.568;2022-07-06T09:40:56;45.33;;;42.85;;
40058;SDS011;25763;49.972;8.568;2022-07-06T09:43:22;42.45;;;40.28;;
40058;SDS011;25763;49.972;8.568;2022-07-06T09:45:49;44.90;;;42.60;;
40058;SDS011;25763;49.972;8.568;2022-07-06T09:50:48;44.80;;;42.53;;
40058;SDS011;25763;49.972;8.568;2022-07-06T09:53:19;32.63;;;30.88;;
40058;SDS011;25763;49.972;8.568;2022-07-06T09:55:46;43.10;;;40.90;;
40058;SDS011;25763;49.972;8.568;2022-07-06T09:58:13;52.42;;;49.83;;
40058;SDS011;25763;49.972;8.568;2022-07-06T10:00:40;53.45;;;50.75;;
40058;SDS011;25763;49.972;8.568;2022-07-06T10:03:09;51.53;;;48.93;;
40058;SDS011;25763;49.972;8.568;2022-07-06T10:05:36;52.00;;;49.33;;
40058;SDS011;25763;49.972;8.568;2022-07-06T10:08:02;52.58;;;49.90;;
40058;SDS011;25763;49.972;8.568;2022-07-06T10:10:31;54.33;;;51.55;;
40058;SDS011;25763;49.972;8.568;2022-07-06T10:12:57;52.85;;;49.95;;
40058;SDS011;25763;49.972;8.568;2022-07-06T10:15:25;55.63;;;52.83;;
40058;SDS011;25763;49.972;8.568;2022-07-06T10:17:52;35.92;;;34.08;;
40058;SDS011;25763;49.972;8.568;2022-07-06T10:20:18;28.38;;;26.88;;
40058;SDS011;25763;49.972;8.568;2022-07-06T10:22:45;38.95;;;36.95;;
40058;SDS011;25763;49.972;8.568;2022-07-06T10:25:12;32.15;;;30.45;;
40058;SDS011;25763;49.972;8.568;2022-07-06T10:27:40;24.80;;;23.50;;
40058;SDS011;25763;49.972;8.568;2022-07-06T10:30:07;30.52;;;28.90;;
40058;SDS011;25763;49.972;8.568;2022-07-06T10:32:33;29.75;;;28.17;;
40058;SDS011;25763;49.972;8.568;2022-07-06T10:35:00;22.77;;;21.58;;
40058;SDS011;25763;49.972;8.568;2022-07-06T10:37:26;27.88;;;26.42;;
40058;SDS011;25763;49.972;8.568;2022-07-06T10:39:53;24.73;;;23.42;;
40058;SDS011;25763;49.972;8.568;2022-07-06T10:42:44;23.08;;;21.83;;
40058;SDS011;25763;49.972;8.568;2022-07-06T10:45:11;24.20;;;22.90;;
40058;SDS011;25763;49.972;8.568;2022-07-06T10:47:39;21.45;;;20.27;;
40058;SDS011;25763;49.972;8.568;2022-07-06T10:50:06;23.58;;;22.27;;
40058;SDS011;25763;49.972;8.568;2022-07-06T10:52:47;23.92;;;22.63;;
40058;SDS011;25763;49.972;8.568;2022-07-06T10:55:35;23.52;;;22.30;;
40058;SDS011;25763;49.972;8.568;2022-07-06T10:58:01;23.38;;;22.13;;
40058;SDS011;25763;49.972;8.568;2022-07-06T11:03:32;25.85;;;24.50;;
40058;SDS011;25763;49.972;8.568;2022-07-06T11:06:05;26.27;;;24.88;;
40058;SDS011;25763;49.972;8.568;2022-07-06T11:55:47;49.10;;;46.60;;
40058;SDS011;25763;49.972;8.568;2022-07-06T12:22:26;32.53;;;30.83;;
40058;SDS011;25763;49.972;8.568;2022-07-06T14:24:11;77.32;;;73.47;;
40058;SDS011;25763;49.972;8.568;2022-07-06T14:32:08;65.45;;;62.20;;
40058;SDS011;25763;49.972;8.568;2022-07-06T14:39:07;63.03;;;59.90;;
40058;SDS011;25763;49.972;8.568;2022-07-06T15:16:37;68.57;;;65.15;;
40058;SDS011;25763;49.972;8.568;2022-07-06T16:47:39;49.50;;;47.00;;
40058;SDS011;25763;49.972;8.568;2022-07-06T16:59:17;50.30;;;47.75;;
40058;SDS011;25763;49.972;8.568;2022-07-06T17:14:43;38.03;;;35.97;;
40058;SDS011;25763;49.972;8.568;2022-07-06T17:42:04;40.70;;;38.60;;
40058;SDS011;25763;49.972;8.568;2022-07-06T17:45:38;45.05;;;42.75;;
40058;SDS011;25763;49.972;8.568;2022-07-06T18:41:25;21.63;;;20.42;;
40058;SDS011;25763;49.972;8.568;2022-07-06T18:48:32;16.35;;;15.45;;
40058;SDS011;25763;49.972;8.568;2022-07-06T19:07:41;15.48;;;14.63;;
40058;SDS011;25763;49.972;8.568;2022-07-06T19:40:39;12.82;;;12.02;;
40058;SDS011;25763;49.972;8.568;2022-07-06T19:59:23;11.55;;;10.85;;
40058;SDS011;25763;49.972;8.568;2022-07-06T20:01:48;12.13;;;11.43;;
40058;SDS011;25763;49.972;8.568;2022-07-06T20:04:14;11.75;;;11.05;;
40058;SDS011;25763;49.972;8.568;2022-07-06T20:06:40;11.18;;;10.48;;
40058;SDS011;25763;49.972;8.568;2022-07-06T20:09:05;10.82;;;10.18;;
40058;SDS011;25763;49.972;8.568;2022-07-06T20:11:31;12.43;;;11.70;;
40058;SDS011;25763;49.972;8.568;2022-07-06T20:13:57;12.50;;;11.75;;
40058;SDS011;25763;49.972;8.568;2022-07-06T20:16:24;10.90;;;10.23;;
40058;SDS011;25763;49.972;8.568;2022-07-06T20:18:49;10.70;;;10.07;;
40058;SDS011;25763;49.972;8.568;2022-07-06T20:21:15;11.95;;;11.25;;
40058;SDS011;25763;49.972;8.568;2022-07-06T20:23:40;12.40;;;11.70;;
40058;SDS011;25763;49.972;8.568;2022-07-06T20:26:06;10.82;;;10.13;;
40058;SDS011;25763;49.972;8.568;2022-07-06T20:28:32;12.00;;;11.30;;
40058;SDS011;25763;49.972;8.568;2022-07-06T20:30:58;11.55;;;10.85;;
40058;SDS011;25763;49.972;8.568;2022-07-06T20:33:23;11.55;;;10.85;;
40058;SDS011;25763;49.972;8.568;2022-07-06T20:35:49;10.70;;;10.02;;
40058;SDS011;25763;49.972;8.568;2022-07-06T20:38:14;11.48;;;10.77;;
40058;SDS011;25763;49.972;8.568;2022-07-06T20:40:41;11.40;;;10.70;;
40058;SDS011;25763;49.972;8.568;2022-07-06T20:43:06;10.18;;;9.57;;
40058;SDS011;25763;49.972;8.568;2022-07-06T20:45:32;10.02;;;9.43;;
40058;SDS011;25763;49.972;8.568;2022-07-06T20:47:57;10.65;;;10.02;;
40058;SDS011;25763;49.972;8.568;2022-07-06T20:50:22;10.40;;;9.75;;
40058;SDS011;25763;49.972;8.568;2022-07-06T20:52:48;10.68;;;9.98;;
40058;SDS011;25763;49.972;8.568;2022-07-06T20:55:13;10.30;;;9.70;;
40058;SDS011;25763;49.972;8.568;2022-07-06T20:57:39;9.93;;;9.32;;
40058;SDS011;25763;49.972;8.568;2022-07-06T21:00:04;10.27;;;9.68;;
40058;SDS011;25763;49.972;8.568;2022-07-06T21:02:30;11.00;;;10.30;;
40058;SDS011;25763;49.972;8.568;2022-07-06T21:04:56;10.07;;;9.48;;
40058;SDS011;25763;49.972;8.568;2022-07-06T21:07:21;10.50;;;9.90;;
40058;SDS011;25763;49.972;8.568;2022-07-06T21:09:47;11.55;;;10.85;;
40058;SDS011;25763;49.972;8.568;2022-07-06T21:12:12;10.73;;;10.07;;
40058;SDS011;25763;49.972;8.568;2022-07-06T21:14:37;9.77;;;9.07;;
40058;SDS011;25763;49.972;8.568;2022-07-06T21:17:03;11.02;;;10.32;;
40058;SDS011;25763;49.972;8.568;2022-07-06T21:19:28;9.32;;;8.63;;
40058;SDS011;25763;49.972;8.568;2022-07-06T21:21:54;9.38;;;8.77;;
40058;SDS011;25763;49.972;8.568;2022-07-06T21:24:19;11.07;;;10.38;;
40058;SDS011;25763;49.972;8.568;2022-07-06T21:26:45;9.50;;;8.90;;
40058;SDS011;25763;49.972;8.568;2022-07-06T21:29:10;10.95;;;10.25;;
40058;SDS011;25763;49.972;8.568;2022-07-06T21:31:35;9.20;;;8.60;;
40058;SDS011;25763;49.972;8.568;2022-07-06T21:34:01;10.10;;;9.50;;
40058;SDS011;25763;49.972;8.568;2022-07-06T21:36:26;9.20;;;8.60;;
40058;SDS011;25763;49.972;8.568;2022-07-06T21:38:51;9.95;;;9.25;;
40058;SDS011;25763;49.972;8.568;2022-07-06T21:41:17;9.55;;;8.95;;
40058;SDS011;25763;49.972;8.568;2022-07-06T21:43:42;9.55;;;8.95;;
40058;SDS011;25763;49.972;8.568;2022-07-06T21:46:07;10.07;;;9.48;;
40058;SDS011;25763;49.972;8.568;2022-07-06T21:48:33;9.82;;;9.23;;
40058;SDS011;25763;49.972;8.568;2022-07-06T21:50:58;10.60;;;9.00;;
40058;SDS011;25763;49.972;8.568;2022-07-06T21:53:24;9.20;;;8.60;;
40058;SDS011;25763;49.972;8.568;2022-07-06T21:55:53;9.82;;;9.23;;
40058;SDS011;25763;49.972;8.568;2022-07-06T21:58:19;10.77;;;10.13;;
40058;SDS011;25763;49.972;8.568;2022-07-06T22:00:45;10.13;;;9.43;;
40058;SDS011;25763;49.972;8.568;2022-07-06T22:03:10;9.40;;;8.80;;
40058;SDS011;25763;49.972;8.568;2022-07-06T22:05:36;11.63;;;10.90;;
40058;SDS011;25763;49.972;8.568;2022-07-06T22:08:02;9.30;;;8.70;;
40058;SDS011;25763;49.972;8.568;2022-07-06T22:10:27;9.60;;;9.00;;
40058;SDS011;25763;49.972;8.568;2022-07-06T22:12:55;8.93;;;8.32;;
40058;SDS011;25763;49.972;8.568;2022-07-06T22:15:20;10.27;;;9.68;;
40058;SDS011;25763;49.972;8.568;2022-07-06T22:17:46;9.70;;;9.10;;
40058;SDS011;25763;49.972;8.568;2022-07-06T22:20:11;9.85;;;9.25;;
40058;SDS011;25763;49.972;8.568;2022-07-06T22:22:36;9.32;;;8.73;;
40058;SDS011;25763;49.972;8.568;2022-07-06T22:25:02;9.80;;;9.20;;
40058;SDS011;25763;49.972;8.568;2022-07-06T22:27:27;10.93;;;10.23;;
40058;SDS011;25763;49.972;8.568;2022-07-06T22:29:53;10.25;;;9.65;;
40058;SDS011;25763;49.972;8.568;2022-07-06T22:32:18;10.95;;;10.25;;
40058;SDS011;25763;49.972;8.568;2022-07-06T22:34:43;10.13;;;9.52;;
40058;SDS011;25763;49.972;8.568;2022-07-06T22:37:09;9.95;;;9.35;;
40058;SDS011;25763;49.972;8.568;2022-07-06T22:39:34;10.57;;;9.88;;
40058;SDS011;25763;49.972;8.568;2022-07-06T22:41:59;10.85;;;10.05;;
40058;SDS011;25763;49.972;8.568;2022-07-06T22:44:25;9.93;;;9.32;;
40058;SDS011;25763;49.972;8.568;2022-07-06T22:46:50;10.90;;;10.20;;
40058;SDS011;25763;49.972;8.568;2022-07-06T22:49:15;10.32;;;9.63;;